createdAt,value
2023-02-07T00:02:07.765Z,12.93
2023-02-07T00:04:34.081Z,13.75
2023-02-07T00:07:00.395Z,15.13
2023-02-07T00:09:26.710Z,13.48
2023-02-07T00:11:53.010Z,13.95
2023-02-07T00:14:19.327Z,13.02
2023-02-07T00:16:45.669Z,13.25
2023-02-07T00:19:12.045Z,13.20
2023-02-07T00:21:38.458Z,14.23
2023-02-07T00:24:05.384Z,13.93
2023-02-07T00:26:31.753Z,12.80
2023-02-07T00:28:58.081Z,13.35
2023-02-07T00:31:30.635Z,13.30
2023-02-07T00:33:59.744Z,14.48
2023-02-07T00:36:28.217Z,14.48
2023-02-07T00:38:59.782Z,14.10
2023-02-07T00:41:27.105Z,14.27
2023-02-07T00:43:53.672Z,14.65
2023-02-07T00:46:21.192Z,16.63
2023-02-07T00:48:47.588Z,15.88
2023-02-07T00:51:14.302Z,14.93
2023-02-07T00:53:41.059Z,14.55
2023-02-07T00:56:08.474Z,14.75
2023-02-07T00:58:35.139Z,14.30
2023-02-07T01:01:01.465Z,13.15
2023-02-07T01:03:27.797Z,14.13
2023-02-07T01:05:54.096Z,14.32
2023-02-07T01:08:20.407Z,14.30
2023-02-07T01:10:46.885Z,13.95
2023-02-07T01:13:14.963Z,14.52
2023-02-07T01:15:44.208Z,14.35
2023-02-07T01:18:11.401Z,12.07
2023-02-07T01:20:37.844Z,13.77
2023-02-07T01:23:05.215Z,11.68
2023-02-07T01:25:31.874Z,11.35
2023-02-07T01:27:58.186Z,11.82
2023-02-07T01:30:24.536Z,11.90
2023-02-07T01:32:50.912Z,11.45
2023-02-07T01:35:17.268Z,12.65
2023-02-07T01:37:43.587Z,11.85
2023-02-07T01:40:11.702Z,12.43
2023-02-07T01:42:38.281Z,12.30
2023-02-07T01:45:22.835Z,11.05
2023-02-07T01:47:51.361Z,12.00
2023-02-07T01:50:17.951Z,11.77
2023-02-07T01:52:44.942Z,11.93
2023-02-07T01:55:17.773Z,10.60
2023-02-07T01:57:45.038Z,12.43
2023-02-07T02:00:14.804Z,10.65
2023-02-07T02:02:41.886Z,12.27
2023-02-07T02:05:10.424Z,11.32
2023-02-07T02:07:39.204Z,10.63
2023-02-07T02:10:40.841Z,10.98
2023-02-07T02:13:14.761Z,11.05
2023-02-07T02:16:06.100Z,11.77
2023-02-07T02:18:50.052Z,10.18
2023-02-07T02:21:31.435Z,12.95
2023-02-07T02:24:19.101Z,11.90
2023-02-07T02:27:05.735Z,10.63
2023-02-07T02:29:31.980Z,10.32
2023-02-07T02:32:29.232Z,10.68
2023-02-07T02:35:20.277Z,10.18
2023-02-07T02:38:02.128Z,12.20
2023-02-07T02:40:47.196Z,10.00
2023-02-07T02:43:21.520Z,11.27
2023-02-07T02:45:55.388Z,10.52
2023-02-07T02:48:23.564Z,10.80
2023-02-07T02:50:50.055Z,10.85
2023-02-07T02:53:16.620Z,11.02
2023-02-07T02:56:08.598Z,10.88
2023-02-07T02:58:58.732Z,11.55
2023-02-07T03:01:24.997Z,9.52
2023-02-07T03:04:28.928Z,10.23
2023-02-07T03:07:18.205Z,10.38
2023-02-07T03:09:59.695Z,11.00
2023-02-07T03:12:34.724Z,11.38
2023-02-07T03:15:26.391Z,9.85
2023-02-07T03:17:55.674Z,11.07
2023-02-07T03:20:37.051Z,12.55
2023-02-07T03:23:05.854Z,11.98
2023-02-07T03:25:32.749Z,9.48
2023-02-07T03:27:59.123Z,11.93
2023-02-07T03:30:30.189Z,11.85
2023-02-07T03:32:59.195Z,11.80
2023-02-07T03:35:30.487Z,11.57
2023-02-07T03:37:59.265Z,11.15
2023-02-07T03:40:29.840Z,11.23
2023-02-07T03:43:33.475Z,10.68
2023-02-07T03:45:59.798Z,10.52
2023-02-07T03:48:26.175Z,10.32
2023-02-07T03:50:52.484Z,11.60
2023-02-07T03:53:20.376Z,10.63
2023-02-07T03:55:46.688Z,10.32
2023-02-07T03:58:13.188Z,10.40
2023-02-07T04:00:39.625Z,12.52
2023-02-07T04:03:06.374Z,13.45
2023-02-07T04:05:32.822Z,11.50
2023-02-07T04:07:59.126Z,10.52
2023-02-07T04:10:25.435Z,10.90
2023-02-07T04:12:51.868Z,11.13
2023-02-07T04:15:18.528Z,12.25
2023-02-07T04:17:44.837Z,10.43
2023-02-07T04:20:12.182Z,10.98
2023-02-07T04:22:38.688Z,12.27
2023-02-07T04:25:05.378Z,11.57
2023-02-07T04:27:31.766Z,11.82
2023-02-07T04:29:58.077Z,11.40
2023-02-07T04:32:24.431Z,12.25
2023-02-07T04:34:50.753Z,12.63
2023-02-07T04:37:17.425Z,10.70
2023-02-07T04:39:43.773Z,10.32
2023-02-07T04:42:10.081Z,12.23
2023-02-07T04:44:36.393Z,11.68
2023-02-07T04:47:02.717Z,10.70
2023-02-07T04:49:29.023Z,12.27
2023-02-07T04:51:55.312Z,12.30
2023-02-07T04:54:21.674Z,12.52
2023-02-07T04:56:47.986Z,10.25
2023-02-07T04:59:14.320Z,11.57
2023-02-07T05:01:40.610Z,10.73
2023-02-07T05:04:06.909Z,12.77
2023-02-07T05:06:33.205Z,11.63
2023-02-07T05:08:59.507Z,12.48
2023-02-07T05:11:25.846Z,11.27
2023-02-07T05:13:52.144Z,12.40
2023-02-07T05:16:18.486Z,11.57
2023-02-07T05:18:44.774Z,10.82
2023-02-07T05:21:11.098Z,11.77
2023-02-07T05:23:37.369Z,12.43
2023-02-07T05:26:03.760Z,11.35
2023-02-07T05:28:30.064Z,12.02
2023-02-07T05:30:59.854Z,12.75
2023-02-07T05:33:26.249Z,11.77
2023-02-07T05:35:52.570Z,10.30
2023-02-07T05:38:20.092Z,10.65
2023-02-07T05:40:47.375Z,11.32
2023-02-07T05:43:14.126Z,11.35
2023-02-07T05:45:40.767Z,11.50
2023-02-07T05:48:10.457Z,11.07
2023-02-07T05:53:23.432Z,11.90
2023-02-07T05:55:51.706Z,10.73
2023-02-07T05:58:18.039Z,11.77
2023-02-07T06:00:44.322Z,11.38
2023-02-07T06:03:10.668Z,10.35
2023-02-07T06:05:37.434Z,12.20
2023-02-07T06:08:04.118Z,11.25
2023-02-07T06:10:30.430Z,12.38
2023-02-07T06:12:56.740Z,12.55
2023-02-07T06:15:23.219Z,13.13
2023-02-07T06:17:49.632Z,12.15
2023-02-07T06:20:16.198Z,12.30
2023-02-07T06:22:42.502Z,11.82
2023-02-07T06:25:09.221Z,11.95
2023-02-07T06:27:35.512Z,11.23
2023-02-07T06:30:01.842Z,12.25
2023-02-07T06:32:28.151Z,10.98
2023-02-07T06:34:54.462Z,11.05
2023-02-07T06:37:20.767Z,12.57
2023-02-07T06:39:47.060Z,22.02
2023-02-07T06:42:13.365Z,17.85
2023-02-07T06:44:39.653Z,17.80
2023-02-07T06:47:05.950Z,21.90
2023-02-07T06:49:32.304Z,18.55
2023-02-07T06:51:58.865Z,14.10
2023-02-07T06:54:25.220Z,14.82
2023-02-07T06:56:51.528Z,12.98
2023-02-07T06:59:17.960Z,14.95
2023-02-07T07:01:44.381Z,15.52
2023-02-07T07:04:10.727Z,18.20
2023-02-07T07:06:37.109Z,18.27
2023-02-07T07:09:04.384Z,18.65
2023-02-07T07:11:30.786Z,15.93
2023-02-07T07:13:57.069Z,15.45
2023-02-07T07:16:23.503Z,16.20
2023-02-07T07:18:50.183Z,18.45
2023-02-07T07:21:16.568Z,17.48
2023-02-07T07:23:42.894Z,19.42
2023-02-07T07:26:09.194Z,18.52
2023-02-07T07:28:35.555Z,20.02
2023-02-07T07:31:04.170Z,18.00
2023-02-07T07:33:30.531Z,16.17
2023-02-07T07:35:58.002Z,15.55
2023-02-07T07:38:24.359Z,16.42
2023-02-07T07:40:50.677Z,18.15
2023-02-07T07:43:17.073Z,18.02
2023-02-07T07:45:43.389Z,17.33
2023-02-07T07:48:09.778Z,16.73
2023-02-07T07:50:36.131Z,15.13
2023-02-07T07:53:02.436Z,14.10
2023-02-07T07:55:28.756Z,14.77
2023-02-07T07:57:55.031Z,13.30
2023-02-07T08:00:21.394Z,15.25
2023-02-07T08:02:47.702Z,14.05
2023-02-07T08:05:14.094Z,14.90
2023-02-07T08:07:40.589Z,15.93
2023-02-07T08:10:06.969Z,15.77
2023-02-07T08:12:33.426Z,14.70
2023-02-07T08:14:59.765Z,15.55
2023-02-07T08:17:26.097Z,15.40
2023-02-07T08:19:52.411Z,15.80
2023-02-07T08:22:18.771Z,15.55
2023-02-07T08:24:45.055Z,17.48
2023-02-07T08:27:11.519Z,15.65
2023-02-07T08:29:37.851Z,18.08
2023-02-07T08:32:04.351Z,17.85
2023-02-07T08:34:31.147Z,17.95
2023-02-07T08:36:57.444Z,17.00
2023-02-07T08:39:23.744Z,16.45
2023-02-07T08:41:50.043Z,18.63
2023-02-07T08:44:16.356Z,17.95
2023-02-07T08:46:42.638Z,16.60
2023-02-07T08:49:10.122Z,15.13
2023-02-07T08:51:36.457Z,16.42
2023-02-07T08:54:02.811Z,16.30
2023-02-07T08:56:29.137Z,17.20
2023-02-07T08:58:55.441Z,17.90
2023-02-07T09:01:21.818Z,16.73
2023-02-07T09:03:48.128Z,17.35
2023-02-07T09:06:14.408Z,16.80
2023-02-07T09:08:40.730Z,16.95
2023-02-07T09:11:10.095Z,16.58
2023-02-07T09:13:36.628Z,15.73
2023-02-07T09:16:02.960Z,15.90
2023-02-07T09:18:29.534Z,16.70
2023-02-07T09:20:55.851Z,15.48
2023-02-07T09:23:22.192Z,15.77
2023-02-07T09:25:52.666Z,16.85
2023-02-07T09:28:20.358Z,16.33
2023-02-07T09:33:15.277Z,14.18
2023-02-07T09:35:44.140Z,13.68
2023-02-07T09:38:16.456Z,12.77
2023-02-07T09:40:44.084Z,12.05
2023-02-07T09:45:49.418Z,12.77
2023-02-07T09:48:50.257Z,13.25
2023-02-07T09:51:20.040Z,11.90
2023-02-07T09:53:53.346Z,12.45
2023-02-07T09:56:23.163Z,12.38
2023-02-07T09:59:37.925Z,14.07
2023-02-07T10:02:11.582Z,11.85
2023-02-07T10:04:43.959Z,12.13
2023-02-07T10:07:11.532Z,11.90
2023-02-07T10:09:41.550Z,12.05
2023-02-07T10:12:26.688Z,12.60
2023-02-07T10:15:35.642Z,10.68
2023-02-07T10:18:13.945Z,12.32
2023-02-07T10:20:58.771Z,11.32
2023-02-07T10:23:46.599Z,10.85
2023-02-07T10:26:24.858Z,11.23
2023-02-07T10:29:06.239Z,10.85
2023-02-07T10:31:38.359Z,12.00
2023-02-07T10:34:13.806Z,10.85
2023-02-07T10:36:45.728Z,11.52
2023-02-07T10:39:22.068Z,10.95
2023-02-07T10:41:49.245Z,9.63
2023-02-07T10:44:18.880Z,10.38
2023-02-07T10:46:47.714Z,9.93
2023-02-07T10:49:24.837Z,10.85
2023-02-07T10:51:52.054Z,12.57
2023-02-07T10:54:20.488Z,10.93
2023-02-07T10:57:01.691Z,12.48
2023-02-07T10:59:43.366Z,12.50
2023-02-07T11:02:43.388Z,12.75
2023-02-07T11:05:15.468Z,13.82
2023-02-07T11:07:56.214Z,12.55
2023-02-07T11:10:43.722Z,11.60
2023-02-07T11:13:24.752Z,11.88
2023-02-07T11:16:01.602Z,11.65
2023-02-07T11:18:31.526Z,10.82
2023-02-07T11:20:57.947Z,10.77
2023-02-07T11:23:25.376Z,12.15
2023-02-07T11:25:55.266Z,10.25
2023-02-07T11:28:21.664Z,11.38
2023-02-07T11:30:55.440Z,10.95
2023-02-07T11:33:26.705Z,11.30
2023-02-07T11:36:22.292Z,11.45
2023-02-07T11:38:53.945Z,10.43
2023-02-07T11:41:25.907Z,9.80
2023-02-07T11:43:53.948Z,10.48
2023-02-07T11:46:20.341Z,11.82
2023-02-07T11:48:49.610Z,11.40
2023-02-07T11:51:18.612Z,11.23
2023-02-07T11:53:51.094Z,12.90
2023-02-07T11:56:24.799Z,10.80
2023-02-07T11:58:53.051Z,11.40
2023-02-07T12:01:25.964Z,11.02
2023-02-07T12:03:56.381Z,10.35
2023-02-07T12:06:26.434Z,10.70
2023-02-07T12:08:53.181Z,10.63
2023-02-07T12:11:25.688Z,11.23
2023-02-07T12:14:33.269Z,10.98
2023-02-07T12:17:01.718Z,11.57
2023-02-07T12:19:35.393Z,10.43
2023-02-07T12:22:11.566Z,9.98
2023-02-07T12:24:45.692Z,11.27
2023-02-07T12:27:16.110Z,10.15
2023-02-07T12:29:51.751Z,10.10
2023-02-07T12:32:49.292Z,10.68
2023-02-07T12:35:39.261Z,11.05
2023-02-07T12:38:24.319Z,10.13
2023-02-07T12:40:55.735Z,10.32
2023-02-07T12:43:32.318Z,10.13
2023-02-07T12:46:01.722Z,10.90
2023-02-07T12:48:28.011Z,12.10
2023-02-07T12:51:08.803Z,10.32
2023-02-07T12:53:56.414Z,9.32
2023-02-07T12:56:44.082Z,10.20
2023-02-07T12:59:41.955Z,9.90
2023-02-07T13:02:40.394Z,9.32
2023-02-07T13:05:23.981Z,8.27
2023-02-07T13:08:02.363Z,10.00
2023-02-07T13:10:34.632Z,9.45
2023-02-07T13:13:25.911Z,9.75
2023-02-07T13:16:04.358Z,9.48
2023-02-07T13:18:50.533Z,10.60
2023-02-07T13:21:28.574Z,9.80
2023-02-07T13:24:01.099Z,10.50
2023-02-07T13:26:28.689Z,10.90
2023-02-07T13:28:58.815Z,10.80
2023-02-07T13:31:41.771Z,9.95
2023-02-07T13:34:15.736Z,10.13
2023-02-07T13:36:44.808Z,9.95
2023-02-07T13:39:29.830Z,10.05
2023-02-07T13:42:31.584Z,11.20
2023-02-07T13:45:04.107Z,11.05
2023-02-07T13:47:54.497Z,10.35
2023-02-07T13:50:58.516Z,10.15
2023-02-07T13:53:33.566Z,9.95
2023-02-07T13:56:02.858Z,10.48
2023-02-07T13:58:35.278Z,10.02
2023-02-07T14:01:15.411Z,9.25
2023-02-07T14:03:58.209Z,10.30
2023-02-07T14:06:30.302Z,10.95
2023-02-07T14:09:20.337Z,9.82
2023-02-07T14:11:50.040Z,11.07
2023-02-07T14:14:23.281Z,12.50
2023-02-07T14:16:51.035Z,11.18
2023-02-07T14:19:40.074Z,11.32
2023-02-07T14:22:15.900Z,11.63
2023-02-07T14:24:58.638Z,10.68
2023-02-07T14:27:50.752Z,11.15
2023-02-07T14:30:46.596Z,10.93
2023-02-07T14:33:19.186Z,11.35
2023-02-07T14:36:13.792Z,11.18
2023-02-07T14:39:01.748Z,11.07
2023-02-07T14:41:33.503Z,11.70
2023-02-07T14:44:10.392Z,11.43
2023-02-07T14:46:41.598Z,12.50
2023-02-07T14:49:43.804Z,12.90
2023-02-07T14:52:23.557Z,12.93
2023-02-07T14:54:54.771Z,12.05
2023-02-07T14:57:50.767Z,13.27
2023-02-07T15:00:29.638Z,12.85
2023-02-07T15:03:01.249Z,13.30
2023-02-07T15:05:31.030Z,13.15
2023-02-07T15:08:09.066Z,13.32
2023-02-07T15:11:01.822Z,13.32
2023-02-07T15:13:37.169Z,13.52
2023-02-07T15:16:14.216Z,17.25
2023-02-07T15:18:45.903Z,15.80
2023-02-07T15:21:30.996Z,14.38
2023-02-07T15:24:06.814Z,14.38
2023-02-07T15:26:35.186Z,13.60
2023-02-07T15:29:06.947Z,14.00
2023-02-07T15:31:41.003Z,14.02
2023-02-07T15:34:16.029Z,14.68
2023-02-07T15:36:45.442Z,13.77
2023-02-07T15:39:16.531Z,14.25
2023-02-07T15:41:46.019Z,14.98
2023-02-07T15:44:27.165Z,14.10
2023-02-07T15:47:02.289Z,14.77
2023-02-07T15:49:30.261Z,13.75
2023-02-07T15:52:21.013Z,13.52
2023-02-07T15:54:51.302Z,13.50
2023-02-07T15:57:28.142Z,14.82
2023-02-07T15:59:56.578Z,13.88
2023-02-07T16:02:28.759Z,13.23
2023-02-07T16:04:55.355Z,13.52
2023-02-07T16:07:22.933Z,14.90
2023-02-07T16:09:49.377Z,14.88
2023-02-07T16:12:41.593Z,14.70
2023-02-07T16:15:24.338Z,13.75
2023-02-07T16:17:50.874Z,14.88
2023-02-07T16:20:17.435Z,15.00
2023-02-07T16:22:45.579Z,14.88
2023-02-07T16:25:35.028Z,14.85
2023-02-07T16:28:02.892Z,13.75
2023-02-07T16:30:33.424Z,16.08
2023-02-07T16:33:04.722Z,14.98
2023-02-07T16:35:31.115Z,14.95
2023-02-07T16:37:57.535Z,15.45
2023-02-07T16:40:24.371Z,14.73
2023-02-07T16:42:53.490Z,17.42
2023-02-07T16:45:25.678Z,15.77
2023-02-07T16:47:52.867Z,17.52
2023-02-07T16:50:24.643Z,17.77
2023-02-07T16:52:52.184Z,16.65
2023-02-07T16:55:20.569Z,16.25
2023-02-07T16:57:48.399Z,17.08
2023-02-07T17:00:18.004Z,17.85
2023-02-07T17:02:44.349Z,17.83
2023-02-07T17:05:10.727Z,20.77
2023-02-07T17:07:37.179Z,20.90
2023-02-07T17:10:15.947Z,20.17
2023-02-07T17:12:42.313Z,20.38
2023-02-07T17:15:09.278Z,19.92
2023-02-07T17:17:35.694Z,18.77
2023-02-07T17:20:02.159Z,18.90
2023-02-07T17:22:28.502Z,19.27
2023-02-07T17:24:54.841Z,19.10
2023-02-07T17:27:21.273Z,19.40
2023-02-07T17:29:47.606Z,20.13
2023-02-07T17:32:19.502Z,18.55
2023-02-07T17:34:56.225Z,18.92
2023-02-07T17:37:22.545Z,18.58
2023-02-07T17:39:48.862Z,16.88
2023-02-07T17:42:15.196Z,17.92
2023-02-07T17:44:41.524Z,15.63
2023-02-07T17:47:09.164Z,16.55
2023-02-07T17:49:35.515Z,17.65
2023-02-07T17:52:01.876Z,17.15
2023-02-07T17:54:28.246Z,18.38
2023-02-07T17:56:55.702Z,18.92
2023-02-07T18:01:50.114Z,16.42
2023-02-07T18:04:16.497Z,17.38
2023-02-07T18:06:42.815Z,18.02
2023-02-07T18:09:17.825Z,16.95
2023-02-07T18:11:44.240Z,18.45
2023-02-07T18:14:10.633Z,17.95
2023-02-07T18:16:36.993Z,18.55
2023-02-07T18:19:03.545Z,19.17
2023-02-07T18:21:29.942Z,20.60
2023-02-07T18:23:56.743Z,18.60
2023-02-07T18:26:23.358Z,19.50
2023-02-07T18:28:50.083Z,20.48
2023-02-07T18:31:19.778Z,21.45
2023-02-07T18:33:47.281Z,21.45
2023-02-07T18:36:14.553Z,22.17
2023-02-07T18:38:44.017Z,21.38
2023-02-07T18:41:12.571Z,20.30
2023-02-07T18:43:40.235Z,22.63
2023-02-07T18:46:11.815Z,23.88
2023-02-07T18:48:38.918Z,22.60
2023-02-07T18:51:09.597Z,23.48
2023-02-07T18:53:36.357Z,23.75
2023-02-07T18:56:07.600Z,23.73
2023-02-07T18:58:34.446Z,23.30
2023-02-07T19:01:11.962Z,23.80
2023-02-07T19:03:38.362Z,25.65
2023-02-07T19:06:06.756Z,24.48
2023-02-07T19:08:38.041Z,25.73
2023-02-07T19:11:06.768Z,26.50
2023-02-07T19:13:34.743Z,25.83
2023-02-07T19:16:09.095Z,26.83
2023-02-07T19:18:35.416Z,25.42
2023-02-07T19:21:06.646Z,25.17
2023-02-07T19:23:33.490Z,24.08
2023-02-07T19:26:00.516Z,23.58
2023-02-07T19:28:26.861Z,23.20
2023-02-07T19:30:53.243Z,21.13
2023-02-07T19:33:19.570Z,24.23
2023-02-07T19:35:45.941Z,21.38
2023-02-07T19:38:12.289Z,21.13
2023-02-07T19:40:38.928Z,19.63
2023-02-07T19:43:05.408Z,22.05
2023-02-07T19:45:31.748Z,21.55
2023-02-07T19:47:58.050Z,22.08
2023-02-07T19:50:24.400Z,20.63
2023-02-07T19:52:50.693Z,21.20
2023-02-07T19:55:17.116Z,22.05
2023-02-07T19:57:46.159Z,22.77
2023-02-07T20:00:15.506Z,24.38
2023-02-07T20:02:41.836Z,25.30
2023-02-07T20:05:08.122Z,22.17
2023-02-07T20:07:34.476Z,21.67
2023-02-07T20:10:00.900Z,21.60
2023-02-07T20:12:27.324Z,23.60
2023-02-07T20:14:53.688Z,22.58
2023-02-07T20:17:20.059Z,21.55
2023-02-07T20:19:46.386Z,22.98
2023-02-07T20:22:12.711Z,22.77
2023-02-07T20:24:39.028Z,24.27
2023-02-07T20:27:05.357Z,24.75
2023-02-07T20:29:31.677Z,22.45
2023-02-07T20:31:58.028Z,23.05
2023-02-07T20:34:24.355Z,21.10
2023-02-07T20:36:50.705Z,21.23
2023-02-07T20:39:20.454Z,21.15
2023-02-07T20:41:47.944Z,20.05
2023-02-07T20:44:16.185Z,19.63
2023-02-07T20:46:43.577Z,18.58
2023-02-07T20:49:16.216Z,18.98
2023-02-07T20:51:46.909Z,18.58
2023-02-07T20:54:13.221Z,19.38
2023-02-07T20:56:39.525Z,20.58
2023-02-07T20:59:06.348Z,20.17
2023-02-07T21:01:33.838Z,20.33
2023-02-07T21:04:06.893Z,18.55
2023-02-07T21:06:34.633Z,19.20
2023-02-07T21:09:03.108Z,19.33
2023-02-07T21:11:34.054Z,17.15
2023-02-07T21:14:01.332Z,18.88
2023-02-07T21:16:27.772Z,18.73
2023-02-07T21:18:54.232Z,19.30
2023-02-07T21:21:20.564Z,19.48
2023-02-07T21:23:46.888Z,17.65
2023-02-07T21:26:15.872Z,17.63
2023-02-07T21:28:42.633Z,18.95
2023-02-07T21:31:18.691Z,19.23
2023-02-07T21:33:45.570Z,19.30
2023-02-07T21:36:15.040Z,17.52
2023-02-07T21:38:44.950Z,19.75
2023-02-07T21:41:12.741Z,18.33
2023-02-07T21:43:39.726Z,18.30
2023-02-07T21:46:09.105Z,19.30
2023-02-07T21:48:37.039Z,18.98
2023-02-07T21:51:05.044Z,20.30
2023-02-07T21:53:31.385Z,20.10
2023-02-07T21:56:02.598Z,18.55
2023-02-07T21:58:28.970Z,19.00
2023-02-07T22:00:55.734Z,20.80
2023-02-07T22:03:22.573Z,21.27
2023-02-07T22:05:51.553Z,20.15
2023-02-07T22:08:17.912Z,18.65
2023-02-07T22:10:44.250Z,18.98
2023-02-07T22:13:12.287Z,20.58
2023-02-07T22:15:38.643Z,22.08
2023-02-07T22:18:05.072Z,17.75
2023-02-07T22:20:32.264Z,18.52
2023-02-07T22:22:58.587Z,19.60
2023-02-07T22:25:24.930Z,19.50
2023-02-07T22:27:51.253Z,18.38
2023-02-07T22:30:17.660Z,17.48
2023-02-07T22:32:43.960Z,18.48
2023-02-07T22:35:10.299Z,19.73
2023-02-07T22:37:36.559Z,18.27
2023-02-07T22:40:03.154Z,17.13
2023-02-07T22:42:34.361Z,18.48
2023-02-07T22:45:00.941Z,17.92
2023-02-07T22:47:27.273Z,16.48
2023-02-07T22:49:53.591Z,16.48
2023-02-07T22:52:19.873Z,16.15
2023-02-07T22:54:46.185Z,17.02
2023-02-07T22:57:12.495Z,18.02
2023-02-07T22:59:39.272Z,17.20
2023-02-07T23:02:05.575Z,18.92
2023-02-07T23:04:31.923Z,19.35
2023-02-07T23:06:58.227Z,20.63
2023-02-07T23:09:24.577Z,17.65
2023-02-07T23:11:50.934Z,18.83
2023-02-07T23:14:17.253Z,17.63
2023-02-07T23:16:43.557Z,17.60
2023-02-07T23:19:15.779Z,17.25
2023-02-07T23:21:42.485Z,17.45
2023-02-07T23:24:09.265Z,16.33
2023-02-07T23:26:35.592Z,17.42
2023-02-07T23:29:02.429Z,17.25
2023-02-07T23:31:29.291Z,19.80
2023-02-07T23:33:55.846Z,17.83
2023-02-07T23:36:22.248Z,16.27
2023-02-07T23:38:49.478Z,20.65
2023-02-07T23:41:16.650Z,20.50
2023-02-07T23:43:43.352Z,22.08
2023-02-07T23:46:09.933Z,20.67
2023-02-07T23:48:38.610Z,23.13
2023-02-07T23:51:06.023Z,21.30
2023-02-07T23:53:32.678Z,22.85
2023-02-07T23:55:59.117Z,23.17
2023-02-07T23:58:26.634Z,22.95
